Time;durP1;ratioP1;P1;durP2;ratioP2;P2;SDS_P1;SDS_P2;PMS_P1;PMS_P2;Temp;Humidity;BMP_temperature;BMP_pressure;BME280_temperature;BME280_humidity;BME280_pressure;Samples;Min_cycle;Max_cycle;Signal;HPM_P1;HPM_P2
2022/09/02 00:01:11;;;;;;;3.05;0.65;;;17.80;76.10;;;;;;5030612;28;20430;-69
2022/09/02 00:03:37;;;;;;;1.83;0.47;;;17.80;77.10;;;;;;5030118;28;20037;-69
2022/09/02 00:06:02;;;;;;;2.40;0.50;;;17.80;76.50;;;;;;5030522;28;20028;-69
2022/09/02 00:08:30;;;;;;;1.48;0.50;;;17.80;76.50;;;;;;5029695;28;20029;-69
2022/09/02 00:10:59;;;;;;;3.70;0.65;;;17.60;76.90;;;;;;5030354;28;20552;-69
2022/09/02 00:13:26;;;;;;;1.13;0.43;;;17.70;77.00;;;;;;5029862;28;20021;-69
2022/09/02 00:15:52;;;;;;;1.05;0.40;;;17.70;76.90;;;;;;5030309;28;20030;-69
2022/09/02 00:18:18;;;;;;;2.35;0.60;;;17.70;76.70;;;;;;5028591;28;20029;-69
2022/09/02 00:20:45;;;;;;;2.85;0.55;;;17.60;76.90;;;;;;5030063;28;20033;-69
2022/09/02 00:23:11;;;;;;;2.65;0.50;;;17.80;77.40;;;;;;5029162;28;20037;-69
2022/09/02 00:25:38;;;;;;;1.02;0.77;;;17.70;77.10;;;;;;5030093;28;20383;-69
2022/09/02 00:28:04;;;;;;;3.40;0.60;;;18.20;77.70;;;;;;5030135;28;20041;-69
2022/09/02 00:30:30;;;;;;;4.43;0.60;;;17.50;77.40;;;;;;5029468;28;20049;-69
2022/09/02 00:32:55;;;;;;;0.80;0.60;;;17.60;77.40;;;;;;5030112;28;20075;-69
2022/09/02 00:35:21;;;;;;;2.63;0.57;;;17.50;77.30;;;;;;5029626;28;20101;-69
2022/09/02 00:37:46;;;;;;;4.57;0.57;;;17.50;77.40;;;;;;5029450;28;20049;-69
2022/09/02 00:40:13;;;;;;;1.58;0.50;;;17.50;77.40;;;;;;5029684;28;20111;-69
2022/09/02 00:42:39;;;;;;;1.75;0.60;;;17.50;77.80;;;;;;5029851;28;20052;-69
2022/09/02 00:45:07;;;;;;;0.52;0.32;;;17.50;77.60;;;;;;5029763;28;20052;-69
2022/09/02 00:47:33;;;;;;;2.67;0.70;;;17.40;78.10;;;;;;5029240;28;20022;-69
2022/09/02 00:49:59;;;;;;;1.85;0.50;;;17.40;78.00;;;;;;5029415;28;20021;-69
2022/09/02 00:52:31;;;;;;;2.55;0.60;;;17.40;78.20;;;;;;5028733;28;20357;-69
2022/09/02 00:55:04;;;;;;;1.25;0.60;;;17.40;78.70;;;;;;5029674;28;20171;-69
2022/09/02 00:57:36;;;;;;;1.77;0.50;;;17.40;77.00;;;;;;5029180;28;20112;-69
2022/09/02 01:00:07;;;;;;;1.73;0.80;;;17.20;78.80;;;;;;5029977;28;20033;-69
2022/09/02 01:02:36;;;;;;;2.70;0.73;;;17.20;77.30;;;;;;5029116;28;20033;-69
2022/09/02 01:05:04;;;;;;;2.25;0.55;;;17.10;78.70;;;;;;5029449;28;20025;-69
2022/09/02 01:07:37;;;;;;;1.13;0.50;;;17.20;78.90;;;;;;5028489;28;20038;-69
2022/09/02 01:10:05;;;;;;;0.70;0.40;;;17.20;79.00;;;;;;5029648;28;20037;-69
2022/09/02 01:12:31;;;;;;;1.88;0.60;;;17.10;78.90;;;;;;5029003;28;20029;-69
2022/09/02 01:14:58;;;;;;;1.38;0.60;;;18.90;79.80;;;;;;5029432;28;20100;-69
2022/09/02 01:17:25;;;;;;;2.95;0.52;;;17.10;78.90;;;;;;5029140;28;20385;-69
2022/09/02 01:19:55;;;;;;;2.92;0.40;;;17.10;78.90;;;;;;5029059;28;20453;-69
2022/09/02 01:22:28;;;;;;;2.85;0.50;;;17.00;79.50;;;;;;5027669;28;20029;-69
2022/09/02 01:24:57;;;;;;;2.15;0.40;;;17.00;79.70;;;;;;5029081;28;20056;-69
2022/09/02 01:27:23;;;;;;;2.80;0.43;;;16.90;79.80;;;;;;5029139;28;20136;-69
2022/09/02 01:29:59;;;;;;;3.08;0.47;;;16.90;79.40;;;;;;5029355;28;20061;-69
2022/09/02 01:32:27;;;;;;;1.58;0.63;;;17.00;80.40;;;;;;5015971;28;20024;-69
2022/09/02 01:34:53;;;;;;;2.05;0.40;;;16.80;79.90;;;;;;5029215;28;20069;-69
2022/09/02 01:37:19;;;;;;;1.77;0.50;;;16.80;79.50;;;;;;5028683;28;20155;-69
2022/09/02 01:39:45;;;;;;;2.55;0.52;;;16.80;79.50;;;;;;5029269;28;20046;-69
2022/09/02 01:42:11;;;;;;;4.40;0.50;;;16.80;79.50;;;;;;5028984;28;20113;-69
2022/09/02 01:44:42;;;;;;;1.05;0.40;;;16.90;79.70;;;;;;5028818;28;20109;-69
2022/09/02 01:47:10;;;;;;;2.75;0.40;;;16.70;79.70;;;;;;5029284;28;20513;-69
2022/09/02 01:49:35;;;;;;;1.58;0.75;;;16.70;80.40;;;;;;5028639;28;20032;-69
2022/09/02 01:52:01;;;;;;;2.70;0.50;;;16.60;79.80;;;;;;5029000;28;20029;-69
2022/09/02 01:54:27;;;;;;;1.70;0.40;;;16.80;79.90;;;;;;5028557;28;20043;-69
2022/09/02 01:56:52;;;;;;;1.05;0.38;;;16.60;80.00;;;;;;5029220;28;20035;-69
2022/09/02 01:59:19;;;;;;;1.23;0.50;;;16.70;80.10;;;;;;5028683;28;20064;-69
2022/09/02 02:01:45;;;;;;;0.80;0.40;;;16.50;80.10;;;;;;5030470;28;20025;-69
2022/09/02 02:04:11;;;;;;;0.98;0.43;;;16.70;80.10;;;;;;5032007;28;20032;-69
2022/09/02 02:06:41;;;;;;;1.73;0.68;;;16.50;80.10;;;;;;5032685;28;20044;-69
2022/09/02 02:09:07;;;;;;;0.95;0.52;;;17.10;81.10;;;;;;5032779;28;20383;-69
2022/09/02 02:11:33;;;;;;;1.20;0.47;;;16.70;80.20;;;;;;5032249;28;20033;-69
2022/09/02 02:13:59;;;;;;;3.25;0.60;;;16.70;80.20;;;;;;5032631;28;20459;-69
2022/09/02 02:16:24;;;;;;;0.63;0.50;;;16.70;79.90;;;;;;5031934;28;20033;-69
2022/09/02 02:18:50;;;;;;;1.05;0.55;;;16.80;80.00;;;;;;5032164;28;20391;-69
2022/09/02 02:21:16;;;;;;;1.80;0.60;;;16.70;80.00;;;;;;5032186;28;20025;-69
2022/09/02 02:23:41;;;;;;;3.97;0.70;;;16.80;79.90;;;;;;5030778;28;20036;-69
2022/09/02 02:26:07;;;;;;;1.30;0.35;;;16.70;79.90;;;;;;5032579;28;20069;-69
2022/09/02 02:28:33;;;;;;;1.60;0.50;;;16.80;79.90;;;;;;5031769;28;20059;-69
2022/09/02 02:30:59;;;;;;;1.05;0.50;;;16.80;79.80;;;;;;5032512;28;20052;-69
2022/09/02 02:33:27;;;;;;;1.70;0.50;;;16.80;79.80;;;;;;5030961;28;20104;-69
2022/09/02 02:35:54;;;;;;;2.33;1.60;;;16.80;80.20;;;;;;5032398;28;20022;-69
2022/09/02 02:38:20;;;;;;;6.20;0.60;;;16.80;80.30;;;;;;5032038;28;20021;-69
2022/09/02 02:40:46;;;;;;;2.30;0.70;;;16.80;80.00;;;;;;5031855;28;20381;-69
2022/09/02 02:43:11;;;;;;;0.75;0.45;;;16.80;79.90;;;;;;5031957;28;20475;-69
2022/09/02 02:45:38;;;;;;;0.77;0.40;;;16.80;80.00;;;;;;5030801;28;20060;-69
2022/09/02 02:48:04;;;;;;;1.08;0.70;;;16.70;79.80;;;;;;5030790;28;20025;-69
2022/09/02 02:50:30;;;;;;;0.65;0.40;;;17.60;80.50;;;;;;5029808;28;20045;-69
2022/09/02 02:52:56;;;;;;;1.17;0.40;;;16.70;79.80;;;;;;5031540;28;20025;-69
2022/09/02 02:55:23;;;;;;;2.38;0.70;;;16.80;79.60;;;;;;5031163;28;20048;-69
2022/09/02 02:57:49;;;;;;;3.10;0.50;;;16.70;79.90;;;;;;5030420;28;20058;-69
2022/09/02 03:00:27;;;;;;;0.90;0.50;;;16.80;79.70;;;;;;5031682;28;20040;-69
2022/09/02 03:02:59;;;;;;;0.75;0.40;;;16.80;78.70;;;;;;5031384;28;20542;-69
2022/09/02 03:05:25;;;;;;;1.25;0.73;;;16.80;80.50;;;;;;5030951;28;20490;-69
2022/09/02 03:07:50;;;;;;;2.53;0.60;;;16.80;79.90;;;;;;5031517;28;20041;-69
2022/09/02 03:10:17;;;;;;;1.30;1.00;;;16.80;79.90;;;;;;5031204;28;20068;-69
2022/09/02 03:12:45;;;;;;;1.58;0.50;;;16.70;80.20;;;;;;5030871;28;20029;-69
2022/09/02 03:15:11;;;;;;;2.15;0.50;;;16.80;80.20;;;;;;5031460;28;20034;-69
2022/09/02 03:17:37;;;;;;;3.38;0.50;;;16.70;79.90;;;;;;5030554;28;20025;-69
2022/09/02 03:20:04;;;;;;;1.20;0.50;;;16.70;80.20;;;;;;5031576;28;20475;-69
2022/09/02 03:22:30;;;;;;;1.90;0.65;;;16.60;79.90;;;;;;5030924;28;20482;-69
2022/09/02 03:24:55;;;;;;;1.98;0.80;;;16.60;80.10;;;;;;5031249;28;20040;-69
2022/09/02 03:27:21;;;;;;;0.85;0.57;;;16.70;80.10;;;;;;5030864;28;20049;-69
2022/09/02 03:29:46;;;;;;;2.58;0.65;;;16.70;80.30;;;;;;5031097;28;20030;-69
2022/09/02 03:32:12;;;;;;;2.45;0.95;;;16.60;80.20;;;;;;5030414;28;20029;-69
2022/09/02 03:34:37;;;;;;;2.78;0.88;;;16.60;80.40;;;;;;5031098;28;20025;-69
2022/09/02 03:37:03;;;;;;;2.05;0.50;;;16.60;80.40;;;;;;5030849;28;20471;-69
2022/09/02 03:39:28;;;;;;;1.83;0.70;;;16.60;80.30;;;;;;5029540;28;20382;-70
2022/09/02 03:41:54;;;;;;;0.98;0.40;;;16.60;80.30;;;;;;5031009;28;20084;-69
2022/09/02 03:44:20;;;;;;;2.45;0.60;;;16.60;80.30;;;;;;5030817;28;20026;-69
2022/09/02 03:46:46;;;;;;;1.63;0.50;;;16.70;80.50;;;;;;5029868;28;20089;-69
2022/09/02 03:49:11;;;;;;;2.30;0.63;;;16.60;80.70;;;;;;5030215;28;20037;-69
2022/09/02 03:51:41;;;;;;;1.80;0.70;;;16.50;80.60;;;;;;5030570;28;20040;-69
2022/09/02 03:54:08;;;;;;;5.93;1.00;;;16.50;81.40;;;;;;5030736;28;20052;-69
2022/09/02 03:56:33;;;;;;;0.85;0.43;;;16.50;81.10;;;;;;5030258;28;20024;-69
2022/09/02 03:58:59;;;;;;;0.95;0.50;;;16.50;81.20;;;;;;5030833;28;20029;-69
2022/09/02 04:01:25;;;;;;;1.98;0.50;;;16.50;81.20;;;;;;5029836;28;20100;-69
2022/09/02 04:03:52;;;;;;;2.33;1.38;;;16.40;81.40;;;;;;5030537;28;20025;-69
2022/09/02 04:06:21;;;;;;;1.15;0.60;;;16.30;82.00;;;;;;5030234;28;20169;-69
2022/09/02 04:08:48;;;;;;;1.45;0.77;;;16.30;82.00;;;;;;5030533;28;20020;-69
2022/09/02 04:11:17;;;;;;;0.85;0.55;;;16.30;81.60;;;;;;5030207;28;20072;-69
2022/09/02 04:13:45;;;;;;;1.15;0.50;;;16.30;81.80;;;;;;5030211;28;20022;-69
2022/09/02 04:16:14;;;;;;;2.40;0.70;;;16.30;81.80;;;;;;5029832;28;20017;-69
2022/09/02 04:18:40;;;;;;;1.10;0.80;;;16.30;81.90;;;;;;5030226;28;20029;-69
2022/09/02 04:21:06;;;;;;;1.40;0.52;;;16.30;81.70;;;;;;5029930;28;20048;-69
2022/09/02 04:23:32;;;;;;;1.02;0.60;;;17.00;82.10;;;;;;5028918;28;20367;-69
2022/09/02 04:25:58;;;;;;;2.40;0.43;;;16.20;81.60;;;;;;5029610;28;20087;-68
2022/09/02 04:28:24;;;;;;;0.90;0.45;;;16.30;81.80;;;;;;5029227;28;20057;-69
2022/09/02 04:30:50;;;;;;;1.90;0.50;;;16.30;81.50;;;;;;5029516;28;20045;-69
2022/09/02 04:33:16;;;;;;;2.13;0.60;;;17.70;82.30;;;;;;5029446;28;20390;-69
2022/09/02 04:35:44;;;;;;;0.77;0.40;;;16.30;81.70;;;;;;5027906;28;20026;-69
2022/09/02 04:38:10;;;;;;;2.00;0.60;;;16.40;81.90;;;;;;5029589;28;20490;-69
2022/09/02 04:40:43;;;;;;;1.80;0.60;;;16.30;81.70;;;;;;5029270;28;20025;-70
2022/09/02 04:43:09;;;;;;;4.78;0.50;;;16.20;80.60;;;;;;5029439;28;20017;-69
2022/09/02 04:45:42;;;;;;;5.22;1.25;;;16.30;82.00;;;;;;5028781;28;20025;-69
2022/09/02 04:48:08;;;;;;;0.77;0.50;;;16.30;82.60;;;;;;5030129;28;20033;-69
2022/09/02 04:50:37;;;;;;;2.83;0.70;;;16.20;82.10;;;;;;5029225;28;20136;-69
2022/09/02 04:53:03;;;;;;;1.52;0.60;;;16.20;82.70;;;;;;5029325;28;20530;-69
2022/09/02 04:55:29;;;;;;;1.77;0.63;;;16.30;82.50;;;;;;5029346;28;20356;-69
2022/09/02 04:57:55;;;;;;;2.97;0.80;;;16.30;82.30;;;;;;5029692;28;20482;-69
2022/09/02 05:00:20;;;;;;;3.65;0.50;;;16.20;82.20;;;;;;5028964;28;20025;-69
2022/09/02 05:02:46;;;;;;;3.47;0.50;;;16.20;82.30;;;;;;5029015;28;20025;-69
2022/09/02 05:05:11;;;;;;;4.55;0.50;;;16.30;82.20;;;;;;5029584;28;20494;-69
2022/09/02 05:07:38;;;;;;;2.92;0.80;;;16.20;82.20;;;;;;5029355;28;20030;-69
2022/09/02 05:10:05;;;;;;;1.63;0.52;;;16.20;82.60;;;;;;5029656;28;20026;-69
2022/09/02 05:12:33;;;;;;;4.43;0.68;;;16.20;82.40;;;;;;5027298;28;20121;-69
2022/09/02 05:14:59;;;;;;;2.10;0.52;;;16.20;82.50;;;;;;5029248;28;20178;-69
2022/09/02 05:17:26;;;;;;;2.22;1.13;;;16.20;82.20;;;;;;5029196;28;20386;-69
2022/09/02 05:19:52;;;;;;;4.53;0.50;;;16.20;82.50;;;;;;5029454;28;20029;-69
2022/09/02 05:22:18;;;;;;;2.05;0.70;;;16.20;82.70;;;;;;5029350;28;20041;-69
2022/09/02 05:24:44;;;;;;;7.07;0.60;;;16.10;82.40;;;;;;5027638;28;20084;-69
2022/09/02 05:27:11;;;;;;;0.80;0.50;;;16.10;82.40;;;;;;5028576;28;20191;-69
2022/09/02 05:29:37;;;;;;;7.03;0.77;;;16.30;82.70;;;;;;5029137;28;20080;-69
2022/09/02 05:32:03;;;;;;;0.90;0.60;;;16.20;82.40;;;;;;5029447;28;20034;-70
2022/09/02 05:34:29;;;;;;;4.40;0.80;;;17.00;82.80;;;;;;5029005;28;20120;-69
2022/09/02 05:36:54;;;;;;;3.10;0.70;;;16.20;82.30;;;;;;5032823;28;20172;-69
2022/09/02 05:39:20;;;;;;;3.53;0.60;;;16.30;82.40;;;;;;5033324;28;20036;-69
2022/09/02 05:41:46;;;;;;;1.45;0.73;;;17.30;82.80;;;;;;5032673;28;20014;-70
2022/09/02 05:44:11;;;;;;;5.20;0.65;;;16.30;82.60;;;;;;5032928;28;20044;-69
2022/09/02 05:46:37;;;;;;;3.13;0.93;;;16.20;82.70;;;;;;5032965;28;20029;-69
2022/09/02 05:49:16;;;;;;;3.05;0.50;;;16.20;82.70;;;;;;5033396;28;20025;-69
2022/09/02 05:51:47;;;;;;;1.48;0.65;;;16.20;83.00;;;;;;5032907;28;20474;-71
2022/09/02 05:54:19;;;;;;;2.13;0.50;;;16.20;83.80;;;;;;5032391;28;20057;-72
2022/09/02 05:56:48;;;;;;;4.90;1.55;;;16.20;83.70;;;;;;5031680;28;20087;-72
2022/09/02 05:59:14;;;;;;;1.88;0.68;;;16.30;83.20;;;;;;5019243;28;20091;-72
2022/09/02 06:01:40;;;;;;;2.60;1.10;;;16.30;82.50;;;;;;5032767;28;20128;-69
2022/09/02 06:04:06;;;;;;;2.58;0.75;;;16.50;82.40;;;;;;5032557;28;20140;-69
2022/09/02 06:06:32;;;;;;;4.68;0.80;;;16.60;82.30;;;;;;5029951;28;20470;-69
2022/09/02 06:08:59;;;;;;;2.40;0.70;;;16.60;82.00;;;;;;5032144;28;20026;-72
2022/09/02 06:11:26;;;;;;;1.60;0.70;;;16.80;81.60;;;;;;5030859;28;20128;-72
2022/09/02 06:13:54;;;;;;;2.78;0.35;;;16.90;81.50;;;;;;5032163;28;20034;-71
2022/09/02 06:16:21;;;;;;;4.00;0.57;;;17.00;81.20;;;;;;5031598;28;20109;-72
2022/09/02 06:18:48;;;;;;;2.35;0.85;;;17.20;81.00;;;;;;5032118;28;20064;-69
2022/09/02 06:21:15;;;;;;;4.65;0.85;;;17.20;80.80;;;;;;5030663;28;20068;-69
2022/09/02 06:23:41;;;;;;;1.13;0.50;;;17.20;80.60;;;;;;5031769;28;20017;-69
2022/09/02 06:26:09;;;;;;;4.13;0.70;;;17.30;80.30;;;;;;5031628;28;20454;-69
2022/09/02 06:28:35;;;;;;;2.85;0.90;;;17.40;80.70;;;;;;5031772;28;20128;-69
2022/09/02 06:31:17;;;;;;;1.10;0.40;;;17.40;79.90;;;;;;5032505;28;20045;-69
2022/09/02 06:33:44;;;;;;;3.20;0.80;;;17.40;80.90;;;;;;5031691;28;20026;-69
2022/09/02 06:36:13;;;;;;;3.17;1.02;;;17.40;80.40;;;;;;5023472;28;20029;-69
2022/09/02 06:38:43;;;;;;;2.60;0.65;;;17.40;80.40;;;;;;5026438;28;20029;-69
2022/09/02 06:41:12;;;;;;;1.92;0.82;;;17.40;80.30;;;;;;5028366;28;20151;-69
2022/09/02 06:43:38;;;;;;;1.13;0.65;;;17.30;80.40;;;;;;5021364;28;20033;-69
2022/09/02 06:46:04;;;;;;;1.15;0.65;;;17.20;80.00;;;;;;5027489;28;20017;-69
2022/09/02 06:48:29;;;;;;;3.00;0.80;;;17.10;80.20;;;;;;5028857;28;20040;-69
2022/09/02 06:50:55;;;;;;;2.17;0.75;;;17.20;80.10;;;;;;5028727;28;20037;-69
2022/09/02 06:53:21;;;;;;;2.05;0.80;;;17.00;80.20;;;;;;5031377;28;20057;-69
2022/09/02 06:55:47;;;;;;;3.22;1.00;;;17.10;80.60;;;;;;5030417;28;20124;-68
2022/09/02 06:58:14;;;;;;;2.08;0.80;;;17.10;80.50;;;;;;5031133;28;20478;-69
2022/09/02 07:00:40;;;;;;;3.40;0.80;;;16.90;80.80;;;;;;5030484;28;20560;-70
2022/09/02 07:05:59;;;;;;;3.58;1.20;;;17.10;80.90;;;;;;5031604;28;20033;-69
2022/09/02 07:08:25;;;;;;;5.85;0.75;;;15.10;80.60;;;;;;5031332;28;20382;-70
2022/09/02 07:10:50;;;;;;;2.97;0.85;;;17.30;81.00;;;;;;5030129;28;20037;-72
2022/09/02 07:13:16;;;;;;;5.28;2.03;;;17.10;80.80;;;;;;5031452;28;20036;-72
2022/09/02 07:15:41;;;;;;;2.65;1.10;;;17.30;80.80;;;;;;5031085;28;20049;-72
2022/09/02 07:18:07;;;;;;;4.30;0.90;;;17.60;80.80;;;;;;5030487;28;20025;-73
2022/09/02 07:20:32;;;;;;;3.30;0.80;;;18.10;80.90;;;;;;5030406;28;20449;-73
2022/09/02 07:22:58;;;;;;;2.35;0.90;;;17.50;80.30;;;;;;5029944;28;20424;-72
2022/09/02 07:25:24;;;;;;;4.28;1.65;;;17.60;80.30;;;;;;5030037;28;20025;-73
2022/09/02 07:27:50;;;;;;;2.78;1.00;;;17.60;80.40;;;;;;5029887;28;20106;-73
2022/09/02 07:30:16;;;;;;;7.70;1.33;;;17.70;80.20;;;;;;5029527;28;20021;-73
2022/09/02 07:32:42;;;;;;;3.25;1.13;;;17.90;80.20;;;;;;5029432;28;20045;-73
2022/09/02 07:35:08;;;;;;;4.03;0.93;;;18.10;79.70;;;;;;5029717;28;20025;-73
2022/09/02 07:37:34;;;;;;;2.33;1.00;;;18.20;79.70;;;;;;5028017;28;20096;-73
2022/09/02 07:40:02;;;;;;;6.00;1.48;;;18.30;79.40;;;;;;5029047;28;20022;-72
2022/09/02 07:42:28;;;;;;;6.03;1.02;;;18.50;79.50;;;;;;5027029;28;20043;-72
2022/09/02 07:44:54;;;;;;;2.85;0.90;;;18.30;78.70;;;;;;5029662;28;20454;-72
2022/09/02 07:47:19;;;;;;;2.65;0.90;;;18.60;78.50;;;;;;5029161;28;20037;-72
2022/09/02 07:49:45;;;;;;;3.75;1.35;;;18.70;78.20;;;;;;5029490;28;20033;-71
2022/09/02 07:52:10;;;;;;;3.72;1.10;;;18.80;77.90;;;;;;5028857;28;20040;-73
2022/09/02 07:54:36;;;;;;;2.70;0.82;;;18.90;77.50;;;;;;5026253;28;20104;-72
2022/09/02 07:57:01;;;;;;;3.40;1.00;;;19.20;77.60;;;;;;5028388;28;20013;-73
2022/09/02 07:59:27;;;;;;;3.75;1.25;;;19.30;77.00;;;;;;5029010;28;20014;-72
2022/09/02 08:01:53;;;;;;;6.13;0.82;;;19.40;76.70;;;;;;5030449;28;20065;-72
2022/09/02 08:04:24;;;;;;;1.58;1.10;;;19.60;76.70;;;;;;5030273;28;20030;-72
2022/09/02 08:06:52;;;;;;;4.22;1.15;;;19.80;76.90;;;;;;5029620;28;20140;-72
2022/09/02 08:09:19;;;;;;;3.70;1.15;;;20.00;76.20;;;;;;5019232;28;20385;-73
2022/09/02 08:11:48;;;;;;;4.25;0.98;;;20.20;75.40;;;;;;5029373;28;20067;-73
2022/09/02 08:14:18;;;;;;;1.65;0.82;;;20.30;75.20;;;;;;5029471;28;20548;-72
2022/09/02 08:16:45;;;;;;;6.38;1.10;;;20.40;75.20;;;;;;5029312;28;20132;-72
2022/09/02 08:19:12;;;;;;;3.78;1.10;;;20.40;74.30;;;;;;5028267;28;20042;-72
2022/09/02 08:21:37;;;;;;;3.05;1.20;;;20.50;74.20;;;;;;5028856;28;20461;-73
2022/09/02 08:24:04;;;;;;;3.92;0.93;;;20.50;73.90;;;;;;5030158;28;20071;-73
2022/09/02 08:26:29;;;;;;;3.22;1.38;;;20.60;73.60;;;;;;5028967;28;20537;-72
2022/09/02 08:28:55;;;;;;;3.03;1.05;;;20.60;73.70;;;;;;5030148;28;20017;-73
2022/09/02 08:31:21;;;;;;;2.28;1.20;;;20.60;73.60;;;;;;5029754;28;20049;-72
2022/09/02 08:33:47;;;;;;;7.30;1.00;;;20.70;73.90;;;;;;5029540;28;20104;-73
2022/09/02 08:36:13;;;;;;;6.80;1.23;;;20.90;73.30;;;;;;5027350;28;20108;-73
2022/09/02 08:38:43;;;;;;;6.07;1.15;;;20.90;73.80;;;;;;5025706;28;20041;-72
2022/09/02 08:41:19;;;;;;;2.58;1.27;;;21.00;73.20;;;;;;5029731;28;20087;-72
2022/09/02 08:43:46;;;;;;;3.90;0.85;;;21.30;73.60;;;;;;5029453;28;20029;-72
2022/09/02 08:46:15;;;;;;;9.15;1.92;;;21.60;72.90;;;;;;5028721;28;20124;-72
2022/09/02 08:49:01;;;;;;;3.55;1.65;;;21.20;73.00;;;;;;5028421;28;20044;-73
2022/09/02 08:51:31;;;;;;;2.70;1.20;;;21.30;72.20;;;;;;5028109;28;20480;-72
2022/09/02 08:54:03;;;;;;;3.03;1.02;;;21.20;72.60;;;;;;5029005;28;20555;-73
2022/09/02 08:56:30;;;;;;;2.92;0.85;;;21.30;72.70;;;;;;5028584;28;20124;-73
2022/09/02 08:58:56;;;;;;;2.38;1.10;;;22.40;72.60;;;;;;5029417;28;20521;-72
2022/09/02 09:01:29;;;;;;;4.65;1.23;;;21.10;71.70;;;;;;5028605;28;20033;-73
2022/09/02 09:04:16;;;;;;;3.40;1.40;;;21.50;71.80;;;;;;5029199;28;20029;-72
2022/09/02 09:07:03;;;;;;;4.07;1.60;;;21.50;71.20;;;;;;5027127;28;20052;-73
2022/09/02 09:10:02;;;;;;;3.33;1.15;;;21.50;71.00;;;;;;5022937;28;20108;-77
2022/09/02 09:12:51;;;;;;;3.72;1.30;;;21.60;71.40;;;;;;5028534;28;20044;-77
2022/09/02 09:15:49;;;;;;;2.70;1.08;;;21.60;71.20;;;;;;5029165;28;20055;-77
2022/09/02 09:18:23;;;;;;;4.35;1.10;;;21.70;71.30;;;;;;5024327;28;20048;-76
2022/09/02 09:20:49;;;;;;;;;;;21.70;70.70;;;;;;5028959;28;20116;-77
2022/09/02 09:23:33;;;;;;;7.43;1.90;;;21.70;73.00;;;;;;5028578;28;19988;-77
2022/09/02 09:26:16;;;;;;;7.15;1.80;;;21.80;72.70;;;;;;5029262;28;20021;-77
2022/09/02 09:28:44;;;;;;;4.35;0.93;;;21.90;70.60;;;;;;5028758;28;20045;-77
2022/09/02 09:31:13;;;;;;;8.23;1.58;;;22.00;71.70;;;;;;5028755;28;20041;-76
2022/09/02 09:33:40;;;;;;;6.22;1.52;;;22.10;71.70;;;;;;5028368;28;20025;-77
2022/09/02 09:36:06;;;;;;;5.72;1.80;;;22.30;70.70;;;;;;5028642;28;20522;-76
2022/09/02 09:38:34;;;;;;;6.05;1.63;;;22.40;70.50;;;;;;5028469;28;20173;-76
2022/09/02 09:41:19;;;;;;;2.97;1.27;;;22.40;70.50;;;;;;5029128;28;20021;-76
2022/09/02 09:43:44;;;;;;;3.33;1.35;;;22.60;71.00;;;;;;5028814;28;20037;-76
2022/09/02 09:46:32;;;;;;;1.73;0.98;;;22.50;69.80;;;;;;5028675;28;20425;-76
2022/09/02 09:48:58;;;;;;;3.65;1.25;;;22.70;71.00;;;;;;5028363;28;20095;-76
2022/09/02 09:51:24;;;;;;;3.28;1.20;;;22.80;69.70;;;;;;5028642;28;20041;-76
2022/09/02 09:53:50;;;;;;;3.45;1.40;;;22.90;70.00;;;;;;5028743;28;20017;-76
2022/09/02 09:56:15;;;;;;;8.20;1.55;;;23.00;69.50;;;;;;5028716;28;20033;-76
2022/09/02 09:58:43;;;;;;;2.55;1.20;;;23.00;68.80;;;;;;5028916;28;20113;-76
2022/09/02 10:01:32;;;;;;;5.97;1.42;;;23.10;68.60;;;;;;5028530;28;20041;-76
2022/09/02 10:04:08;;;;;;;4.72;0.90;;;23.20;67.80;;;;;;5023105;28;20431;-76
2022/09/02 10:06:42;;;;;;;3.85;1.05;;;23.10;69.50;;;;;;5028400;28;20033;-77
2022/09/02 10:09:14;;;;;;;1.75;1.08;;;23.30;70.00;;;;;;5028829;28;20072;-77
2022/09/02 10:12:05;;;;;;;3.97;1.60;;;23.30;70.00;;;;;;5028509;28;20033;-77
2022/09/02 10:14:39;;;;;;;5.45;1.42;;;23.50;68.00;;;;;;5028275;28;20067;-77
2022/09/02 10:17:38;;;;;;;;;;;23.50;69.20;;;;;;5028293;28;20024;-74
2022/09/02 10:20:23;;;;;;;2.42;1.60;;;23.50;67.80;;;;;;4974200;28;19913;-75
2022/09/02 10:23:15;;;;;;;4.95;1.55;;;23.60;67.10;;;;;;5029947;28;20390;-75
2022/09/02 10:26:14;;;;;;;2.50;1.27;;;23.60;67.00;;;;;;5024311;28;20029;-75
2022/09/02 10:28:58;;;;;;;3.28;1.60;;;23.60;67.00;;;;;;5031539;28;20521;-75
2022/09/02 10:31:39;;;;;;;4.35;1.17;;;23.70;66.70;;;;;;5031744;28;20025;-75
2022/09/02 10:34:14;;;;;;;4.50;1.42;;;23.70;66.70;;;;;;5031693;28;20025;-74
2022/09/02 10:37:20;;;;;;;2.90;1.10;;;25.90;69.80;;;;;;5031576;28;20032;-75
2022/09/02 10:40:08;;;;;;;3.13;1.30;;;23.70;66.60;;;;;;5025243;28;20074;-75
2022/09/02 10:43:01;;;;;;;4.75;1.42;;;21.30;65.80;;;;;;5026445;28;20091;-75
2022/09/02 10:45:33;;;;;;;4.50;1.40;;;23.90;66.90;;;;;;5029967;28;20068;-74
2022/09/02 10:48:52;;;;;;;5.18;1.27;;;23.90;66.80;;;;;;5031199;28;20118;-75
2022/09/02 10:51:26;;;;;;;3.42;1.05;;;24.00;67.10;;;;;;4990133;28;20045;-78
2022/09/02 10:54:35;;;;;;;5.75;1.70;;;24.20;68.50;;;;;;4990041;28;20582;-76
2022/09/02 10:57:12;;;;;;;4.60;1.50;;;24.00;66.50;;;;;;4974926;28;20031;-76
2022/09/02 11:00:03;;;;;;;3.50;1.58;;;24.10;66.00;;;;;;4989649;28;20518;-79
2022/09/02 11:02:37;;;;;;;3.05;1.30;;;24.20;67.60;;;;;;4985008;28;20043;-75
2022/09/02 11:05:22;;;;;;;2.80;1.33;;;24.20;65.80;;;;;;4979612;28;20577;-75
2022/09/02 11:08:11;;;;;;;2.75;1.60;;;24.10;67.90;;;;;;4989517;28;20027;-75
2022/09/02 11:10:48;;;;;;;1.80;1.25;;;24.20;67.60;;;;;;4989009;28;20120;-75
2022/09/02 11:13:23;;;;;;;2.33;1.35;;;24.20;67.70;;;;;;4989306;28;20077;-70
2022/09/02 11:15:56;;;;;;;2.15;1.58;;;24.30;67.70;;;;;;4988025;28;20038;-76
2022/09/02 11:18:31;;;;;;;;;;;24.40;67.40;;;;;;4989794;28;20630;-76
2022/09/02 11:21:09;;;;;;;2.40;1.20;;;24.40;66.30;;;;;;4991152;28;19936;-76
2022/09/02 11:24:01;;;;;;;4.65;1.60;;;25.40;68.10;;;;;;5030509;28;20021;-76
2022/09/02 11:26:37;;;;;;;4.93;1.73;;;24.40;67.20;;;;;;5030579;28;20025;-76
2022/09/02 11:29:29;;;;;;;1.75;1.40;;;24.50;64.80;;;;;;5018456;28;20137;-75
2022/09/02 11:32:16;;;;;;;3.63;0.98;;;24.50;65.30;;;;;;5031108;28;20642;-76
2022/09/02 11:34:47;;;;;;;2.85;1.27;;;24.60;65.70;;;;;;5030312;28;20025;-76
2022/09/02 11:37:40;;;;;;;1.65;1.30;;;24.70;66.90;;;;;;5030613;28;20073;-76
2022/09/02 11:40:12;;;;;;;2.30;1.30;;;24.90;65.30;;;;;;5030700;28;20029;-75
2022/09/02 11:43:11;;;;;;;1.55;1.35;;;24.90;65.70;;;;;;5030622;28;20037;-75
2022/09/02 11:46:10;;;;;;;3.13;1.50;;;24.90;64.20;;;;;;5030076;28;20017;-75
2022/09/02 11:48:54;;;;;;;2.28;1.10;;;25.00;63.90;;;;;;5030600;28;20430;-76
2022/09/02 11:51:52;;;;;;;5.15;0.88;;;25.00;63.40;;;;;;5030518;28;20033;-76
2022/09/02 11:54:20;;;;;;;1.95;0.90;;;25.00;62.40;;;;;;5030272;28;20429;-76
2022/09/02 11:56:49;;;;;;;1.67;1.20;;;24.90;63.30;;;;;;5030161;28;20402;-76
2022/09/02 11:59:43;;;;;;;2.72;1.40;;;24.90;63.40;;;;;;5030176;28;20104;-76
2022/09/02 12:02:11;;;;;;;1.52;1.27;;;24.90;63.60;;;;;;5030537;28;20024;-76
2022/09/02 12:04:36;;;;;;;2.90;0.90;;;24.80;62.70;;;;;;5030195;28;20030;-75
2022/09/02 12:07:05;;;;;;;6.15;1.45;;;24.90;62.00;;;;;;5030576;28;20029;-76
2022/09/02 12:09:48;;;;;;;3.35;1.50;;;24.80;60.50;;;;;;5029775;28;20167;-75
2022/09/02 12:12:37;;;;;;;1.75;0.93;;;25.00;61.80;;;;;;5029907;28;20440;-76
2022/09/02 12:15:06;;;;;;;2.80;1.25;;;25.00;62.00;;;;;;5017881;28;20022;-77
2022/09/02 12:17:59;;;;;;;1.15;0.98;;;24.90;63.60;;;;;;5029245;28;20017;-76
2022/09/02 12:20:37;;;;;;;3.20;1.08;;;25.10;61.40;;;;;;5024126;28;20132;-76
2022/09/02 12:23:07;;;;;;;3.50;1.08;;;25.00;62.80;;;;;;5029638;28;20052;-76
2022/09/02 12:25:39;;;;;;;2.67;1.20;;;25.10;59.70;;;;;;5015823;28;20017;-76
2022/09/02 12:28:13;;;;;;;1.58;0.90;;;25.10;60.30;;;;;;5029457;28;20061;-76
2022/09/02 12:31:07;;;;;;;1.75;1.02;;;25.90;61.30;;;;;;5029698;28;20150;-78
2022/09/02 12:33:37;;;;;;;3.15;1.75;;;25.10;58.80;;;;;;5028564;28;20475;-74
2022/09/02 12:36:04;;;;;;;2.13;1.10;;;24.90;57.80;;;;;;5029167;28;20018;-75
2022/09/02 12:38:29;;;;;;;4.00;1.30;;;24.90;59.70;;;;;;5029034;28;20482;-74
2022/09/02 12:41:04;;;;;;;2.85;1.40;;;24.80;59.80;;;;;;5029102;28;20028;-74
2022/09/02 12:44:12;;;;;;;3.55;1.70;;;24.90;61.50;;;;;;5029006;28;20037;-76
2022/09/02 12:46:44;;;;;;;2.38;1.15;;;24.90;59.70;;;;;;5028408;28;20492;-76
2022/09/02 12:49:32;;;;;;;4.28;1.10;;;24.90;61.20;;;;;;5028664;28;20359;-76
2022/09/02 12:52:03;;;;;;;1.95;1.27;;;25.00;59.70;;;;;;5029227;28;20474;-76
2022/09/02 12:54:29;;;;;;;2.75;1.27;;;25.00;60.30;;;;;;5017445;28;20037;-73
2022/09/02 12:56:54;;;;;;;3.38;1.35;;;25.00;60.00;;;;;;5029100;28;20045;-74
2022/09/02 12:59:32;;;;;;;1.73;1.20;;;25.00;60.20;;;;;;5026791;28;20020;-75
2022/09/02 13:02:15;;;;;;;3.70;1.40;;;25.00;61.10;;;;;;5029200;28;20087;-72
2022/09/02 13:04:53;;;;;;;;;;;25.20;61.00;;;;;;5018543;28;20014;-73
2022/09/02 13:07:49;;;;;;;1.77;1.00;;;25.40;59.10;;;;;;5028937;28;19956;-73
2022/09/02 13:10:40;;;;;;;6.32;1.77;;;25.50;58.10;;;;;;5023888;28;20026;-72